createdAt,value
2022-09-12T00:00:51.046Z,15.07
2022-09-12T00:03:17.242Z,23.90
2022-09-12T00:05:45.004Z,15.57
2022-09-12T00:08:12.336Z,17.00
2022-09-12T00:10:43.139Z,16.55
2022-09-12T00:13:10.045Z,17.23
2022-09-12T00:15:43.581Z,14.43
2022-09-12T00:18:15.980Z,16.13
2022-09-12T00:20:46.383Z,13.27
2022-09-12T00:23:13.561Z,15.68
2022-09-12T00:25:44.315Z,14.07
2022-09-12T00:28:11.885Z,15.25
2022-09-12T00:30:46.390Z,20.33
2022-09-12T00:33:13.360Z,16.08
2022-09-12T00:35:48.631Z,15.43
2022-09-12T00:38:15.988Z,17.08
2022-09-12T00:40:43.253Z,17.48
2022-09-12T00:43:14.620Z,18.02
2022-09-12T00:45:42.135Z,16.75
2022-09-12T00:48:22.679Z,19.15
2022-09-12T00:50:49.797Z,15.55
2022-09-12T00:53:16.374Z,18.80
2022-09-12T00:55:48.637Z,20.13
2022-09-12T00:58:23.744Z,19.83
2022-09-12T01:00:50.813Z,20.20
2022-09-12T01:03:21.806Z,19.30
2022-09-12T01:06:14.892Z,22.27
2022-09-12T01:08:43.967Z,17.05
2022-09-12T01:11:12.250Z,21.92
2022-09-12T01:13:39.118Z,18.98
2022-09-12T01:16:06.833Z,16.88
2022-09-12T01:18:54.338Z,18.55
2022-09-12T01:21:46.788Z,21.23
2022-09-12T01:24:25.890Z,24.27
2022-09-12T01:27:20.893Z,19.83
2022-09-12T01:30:25.089Z,24.42
2022-09-12T01:33:02.803Z,25.73
2022-09-12T01:35:57.186Z,19.17
2022-09-12T01:38:46.345Z,19.45
2022-09-12T01:41:25.516Z,19.70
2022-09-12T01:44:01.683Z,21.08
2022-09-12T01:46:46.511Z,19.92
2022-09-12T01:49:12.611Z,18.90
2022-09-12T01:51:44.429Z,23.90
2022-09-12T01:54:20.058Z,29.27
2022-09-12T01:56:49.338Z,27.38
2022-09-12T01:59:36.501Z,24.40
2022-09-12T02:02:16.011Z,28.10
2022-09-12T02:04:50.902Z,29.38
2022-09-12T02:07:26.764Z,27.77
2022-09-12T02:10:01.987Z,29.38
2022-09-12T02:12:36.496Z,25.08
2022-09-12T02:15:07.830Z,32.03
2022-09-12T02:17:38.528Z,25.90
2022-09-12T02:20:17.758Z,29.67
2022-09-12T02:22:59.526Z,29.50
2022-09-12T02:25:27.453Z,32.10
2022-09-12T02:28:01.546Z,32.78
2022-09-12T02:30:35.054Z,40.08
2022-09-12T02:33:06.977Z,36.17
2022-09-12T02:35:43.354Z,38.50
2022-09-12T02:38:15.361Z,36.75
2022-09-12T02:40:41.537Z,38.58
2022-09-12T02:43:07.732Z,35.95
2022-09-12T02:45:36.124Z,32.28
2022-09-12T02:48:09.411Z,36.35
2022-09-12T02:50:37.063Z,40.65
2022-09-12T02:53:06.471Z,34.33
2022-09-12T02:55:33.873Z,40.63
2022-09-12T02:58:06.124Z,38.33
2022-09-12T03:00:41.129Z,36.53
2022-09-12T03:03:22.565Z,36.30
2022-09-12T03:05:57.253Z,41.60
2022-09-12T03:09:01.084Z,41.90
2022-09-12T03:11:45.155Z,38.28
2022-09-12T03:14:20.056Z,39.63
2022-09-12T03:16:54.897Z,35.80
2022-09-12T03:19:33.393Z,35.33
2022-09-12T03:22:21.925Z,38.10
2022-09-12T03:24:52.291Z,43.15
2022-09-12T03:27:44.573Z,40.17
2022-09-12T03:30:11.972Z,38.72
2022-09-12T03:32:45.249Z,43.60
2022-09-12T03:35:12.972Z,38.65
2022-09-12T03:37:39.329Z,38.25
2022-09-12T03:40:07.157Z,40.00
2022-09-12T03:42:33.477Z,37.00
2022-09-12T03:44:59.908Z,44.00
2022-09-12T03:47:26.241Z,51.03
2022-09-12T03:49:52.402Z,47.50
2022-09-12T03:52:19.446Z,46.92
2022-09-12T03:54:45.594Z,50.63
2022-09-12T03:57:12.332Z,38.92
2022-09-12T03:59:38.473Z,39.90
2022-09-12T04:02:04.636Z,39.53
2022-09-12T04:04:31.411Z,45.00
2022-09-12T04:06:57.824Z,39.30
2022-09-12T04:09:23.969Z,38.30
2022-09-12T04:11:50.064Z,37.28
2022-09-12T04:14:16.217Z,36.30
2022-09-12T04:16:42.296Z,36.60
2022-09-12T04:19:11.032Z,35.92
2022-09-12T04:21:37.344Z,39.25
2022-09-12T04:24:03.547Z,36.03
2022-09-12T04:26:31.245Z,37.83
2022-09-12T04:28:57.818Z,37.60
2022-09-12T04:31:25.409Z,40.30
2022-09-12T04:33:59.892Z,34.50
2022-09-12T04:36:27.797Z,39.25
2022-09-12T04:38:54.993Z,42.30
2022-09-12T04:41:32.949Z,47.78
2022-09-12T04:44:01.949Z,44.33
2022-09-12T04:46:30.090Z,46.05
2022-09-12T04:48:57.242Z,45.80
2022-09-12T04:51:27.146Z,48.72
2022-09-12T04:53:58.500Z,45.38
2022-09-12T04:56:25.782Z,56.83
2022-09-12T04:58:52.462Z,48.65
2022-09-12T05:01:21.617Z,50.25
2022-09-12T05:03:49.221Z,46.85
2022-09-12T05:06:22.033Z,49.13
2022-09-12T05:08:48.721Z,49.22
2022-09-12T05:11:22.732Z,49.25
2022-09-12T05:13:51.384Z,54.22
2022-09-12T05:16:18.771Z,53.90
2022-09-12T05:18:46.657Z,50.13
2022-09-12T05:21:15.807Z,50.38
2022-09-12T05:23:42.885Z,58.97
2022-09-12T05:26:13.386Z,56.70
2022-09-12T05:28:39.817Z,57.58
2022-09-12T05:31:07.280Z,60.55
2022-09-12T05:33:35.736Z,64.15
2022-09-12T05:36:04.062Z,53.83
2022-09-12T05:38:30.845Z,60.95
2022-09-12T05:41:05.534Z,60.45
2022-09-12T05:43:33.242Z,55.20
2022-09-12T05:46:04.637Z,64.03
2022-09-12T05:51:02.775Z,61.40
2022-09-12T05:53:30.684Z,64.40
2022-09-12T05:56:18.531Z,64.07
2022-09-12T05:58:47.851Z,70.80
2022-09-12T06:01:16.675Z,83.97
2022-09-12T06:03:45.112Z,83.45
2022-09-12T06:06:15.613Z,83.45
2022-09-12T06:08:44.586Z,79.20
2022-09-12T06:11:16.551Z,81.25
2022-09-12T06:13:43.184Z,82.10
2022-09-12T06:16:11.331Z,92.40
2022-09-12T06:18:38.810Z,74.65
2022-09-12T06:21:13.006Z,78.10
2022-09-12T06:23:40.282Z,81.72
2022-09-12T06:26:09.595Z,81.38
2022-09-12T06:28:38.740Z,81.93
2022-09-12T06:31:07.588Z,79.97
2022-09-12T06:33:35.912Z,85.15
2022-09-12T06:36:06.114Z,77.93
2022-09-12T06:38:35.407Z,78.25
2022-09-12T06:41:06.524Z,72.00
2022-09-12T06:43:33.731Z,71.57
2022-09-12T06:46:02.924Z,75.65
2022-09-12T06:48:29.291Z,68.45
2022-09-12T06:51:04.159Z,60.05
2022-09-12T06:53:32.960Z,66.75
2022-09-12T06:56:08.973Z,63.00
2022-09-12T06:58:35.756Z,59.33
2022-09-12T07:01:03.068Z,56.40
2022-09-12T07:03:29.927Z,63.20
2022-09-12T07:05:55.997Z,59.55
2022-09-12T07:08:22.560Z,55.45
2022-09-12T07:10:48.882Z,57.03
2022-09-12T07:13:15.094Z,53.83
2022-09-12T07:15:41.395Z,51.92
2022-09-12T07:18:10.271Z,50.33
2022-09-12T07:20:38.688Z,48.22
2022-09-12T07:23:05.096Z,49.67
2022-09-12T07:25:31.188Z,47.90
2022-09-12T07:27:57.378Z,45.58
2022-09-12T07:30:23.687Z,44.25
2022-09-12T07:32:53.413Z,44.05
2022-09-12T07:35:20.644Z,40.75
2022-09-12T07:37:46.870Z,39.90
2022-09-12T07:40:13.465Z,39.47
2022-09-12T07:42:39.592Z,28.05
2022-09-12T07:45:07.244Z,30.40
2022-09-12T07:47:33.460Z,25.55
2022-09-12T07:49:59.606Z,25.98
2022-09-12T07:52:25.946Z,27.85
2022-09-12T07:54:52.020Z,25.63
2022-09-12T07:57:18.317Z,23.35
2022-09-12T07:59:53.188Z,18.73
2022-09-12T08:02:19.906Z,21.60
2022-09-12T08:04:47.921Z,21.23
2022-09-12T08:07:14.693Z,20.20
2022-09-12T08:09:40.758Z,16.45
2022-09-12T08:12:07.050Z,20.73
2022-09-12T08:14:33.186Z,20.02
2022-09-12T08:16:59.577Z,15.75
2022-09-12T08:19:25.749Z,17.45
2022-09-12T08:21:51.821Z,15.52
2022-09-12T08:24:17.920Z,17.80
2022-09-12T08:26:44.008Z,11.43
2022-09-12T08:29:10.071Z,17.15
2022-09-12T08:31:36.463Z,13.40
2022-09-12T08:34:05.945Z,13.15
2022-09-12T08:36:33.072Z,12.15
2022-09-12T08:39:04.323Z,13.27
2022-09-12T08:41:41.047Z,12.55
2022-09-12T08:44:34.952Z,11.60
2022-09-12T08:47:34.767Z,9.43
2022-09-12T08:50:09.295Z,11.40
2022-09-12T08:52:35.321Z,14.02
2022-09-12T08:55:04.738Z,10.82
2022-09-12T08:57:30.781Z,8.93
2022-09-12T08:59:56.988Z,11.57
2022-09-12T09:02:32.039Z,6.45
2022-09-12T09:05:25.870Z,8.55
2022-09-12T09:08:41.150Z,8.55
2022-09-12T09:11:37.079Z,9.65
2022-09-12T09:14:45.517Z,7.43
2022-09-12T09:17:31.277Z,8.35
2022-09-12T09:20:28.057Z,6.40
2022-09-12T09:23:00.870Z,8.80
2022-09-12T09:26:10.442Z,8.50
2022-09-12T09:28:39.312Z,7.55
2022-09-12T09:31:14.093Z,6.93
2022-09-12T09:33:40.494Z,9.65
2022-09-12T09:36:32.133Z,10.55
2022-09-12T09:39:10.544Z,7.65
2022-09-12T09:41:55.324Z,8.57
2022-09-12T09:44:21.816Z,9.10
2022-09-12T09:46:55.407Z,22.13
2022-09-12T09:49:22.137Z,8.77
2022-09-12T09:51:48.701Z,9.15
2022-09-12T09:54:22.849Z,10.00
2022-09-12T09:56:49.811Z,11.32
2022-09-12T09:59:19.602Z,8.75
2022-09-12T10:02:06.102Z,10.20
2022-09-12T10:04:41.409Z,11.93
2022-09-12T10:07:18.546Z,10.80
2022-09-12T10:10:14.480Z,10.88
2022-09-12T10:12:40.675Z,10.85
2022-09-12T10:15:20.688Z,9.95
2022-09-12T10:17:49.353Z,10.20
2022-09-12T10:20:39.160Z,10.43
2022-09-12T10:23:36.288Z,11.18
2022-09-12T10:26:07.998Z,9.93
2022-09-12T10:28:44.698Z,9.95
2022-09-12T10:31:15.947Z,11.00
2022-09-12T10:33:52.529Z,12.02
2022-09-12T10:36:20.046Z,9.00
2022-09-12T10:39:00.259Z,8.38
2022-09-12T10:41:34.142Z,10.88
2022-09-12T10:44:18.595Z,8.45
2022-09-12T10:46:45.088Z,8.73
2022-09-12T10:49:22.131Z,8.70
2022-09-12T10:51:48.892Z,9.18
2022-09-12T10:54:18.706Z,9.07
2022-09-12T10:57:03.032Z,6.53
2022-09-12T10:59:49.033Z,6.13
2022-09-12T11:02:35.333Z,4.75
2022-09-12T11:05:27.560Z,4.45
2022-09-12T11:08:25.987Z,3.95
2022-09-12T11:11:01.718Z,3.45
2022-09-12T11:14:01.454Z,5.07
2022-09-12T11:16:56.825Z,4.28
2022-09-12T11:19:43.500Z,3.17
2022-09-12T11:22:35.900Z,4.43
2022-09-12T11:25:38.027Z,3.63
2022-09-12T11:28:23.588Z,3.10
2022-09-12T11:30:52.723Z,3.78
2022-09-12T11:33:42.818Z,3.83
2022-09-12T11:36:53.393Z,2.63
2022-09-12T11:39:42.848Z,3.38
2022-09-12T11:42:19.074Z,4.28
2022-09-12T11:44:51.867Z,3.47
2022-09-12T11:47:20.271Z,5.72
2022-09-12T11:49:50.393Z,6.05
2022-09-12T11:52:23.121Z,2.55
2022-09-12T11:54:58.408Z,3.38
2022-09-12T11:57:39.504Z,2.85
2022-09-12T12:00:25.956Z,3.08
2022-09-12T12:03:10.546Z,2.00
2022-09-12T12:05:53.669Z,2.80
2022-09-12T12:08:22.931Z,3.10
2022-09-12T12:10:59.393Z,2.05
2022-09-12T12:13:46.951Z,4.15
2022-09-12T12:16:36.821Z,2.20
2022-09-12T12:21:53.519Z,1.90
2022-09-12T12:24:25.364Z,2.67
2022-09-12T12:27:03.571Z,2.85
2022-09-12T12:29:43.681Z,2.90
2022-09-12T12:32:10.038Z,2.95
2022-09-12T12:34:39.567Z,2.70
2022-09-12T12:37:20.833Z,2.58
2022-09-12T12:39:50.620Z,3.65
2022-09-12T12:42:34.886Z,2.20
2022-09-12T12:45:28.473Z,2.25
2022-09-12T12:48:08.252Z,4.72
2022-09-12T12:50:34.766Z,2.88
2022-09-12T12:53:24.874Z,2.38
2022-09-12T12:55:53.973Z,2.95
2022-09-12T12:58:39.207Z,5.43
2022-09-12T13:01:20.746Z,3.55
2022-09-12T13:03:55.820Z,8.25
2022-09-12T13:06:35.377Z,2.03
2022-09-12T13:09:05.951Z,4.45
2022-09-12T13:11:38.171Z,3.92
2022-09-12T13:14:08.645Z,4.53
2022-09-12T13:16:37.944Z,3.88
2022-09-12T13:19:18.752Z,4.88
2022-09-12T13:21:56.031Z,4.35
2022-09-12T13:24:23.430Z,2.75
2022-09-12T13:26:49.700Z,4.10
2022-09-12T13:29:18.321Z,5.90
2022-09-12T13:31:52.093Z,3.10
2022-09-12T13:34:34.719Z,2.08
2022-09-12T13:37:36.910Z,3.75
2022-09-12T13:40:18.488Z,1.73
2022-09-12T13:42:50.518Z,1.73
2022-09-12T13:45:26.256Z,3.67
2022-09-12T13:48:00.084Z,3.83
2022-09-12T13:50:31.139Z,5.50
2022-09-12T13:53:05.041Z,1.90
2022-09-12T13:55:38.382Z,2.88
2022-09-12T13:58:23.501Z,3.53
2022-09-12T14:01:15.247Z,1.85
2022-09-12T14:04:14.459Z,2.20
2022-09-12T14:06:48.855Z,5.18
2022-09-12T14:09:29.213Z,3.58
2022-09-12T14:11:55.873Z,4.00
2022-09-12T14:14:31.058Z,3.70
2022-09-12T14:16:58.405Z,1.45
2022-09-12T14:19:25.958Z,1.77
2022-09-12T14:21:53.162Z,2.83
2022-09-12T14:24:22.715Z,1.92
2022-09-12T14:26:50.528Z,2.83
2022-09-12T14:29:17.334Z,7.07
2022-09-12T14:31:44.410Z,5.78
2022-09-12T14:34:14.582Z,5.47
2022-09-12T14:36:51.164Z,5.68
2022-09-12T14:39:28.512Z,2.50
2022-09-12T14:42:21.649Z,3.05
2022-09-12T14:45:15.479Z,5.57
2022-09-12T14:47:43.753Z,4.28
2022-09-12T14:50:20.263Z,3.55
2022-09-12T14:53:02.282Z,4.00
2022-09-12T14:55:30.818Z,3.00
2022-09-12T14:58:29.529Z,5.75
2022-09-12T15:01:06.599Z,4.82
2022-09-12T15:03:50.741Z,2.67
2022-09-12T15:06:22.569Z,2.97
2022-09-12T15:08:48.869Z,3.40
2022-09-12T15:11:15.013Z,6.80
2022-09-12T15:13:41.863Z,4.50
2022-09-12T15:16:10.387Z,3.47
2022-09-12T15:18:37.306Z,5.88
2022-09-12T15:21:06.983Z,4.60
2022-09-12T15:23:42.633Z,2.63
2022-09-12T15:26:15.796Z,5.82
2022-09-12T15:28:42.360Z,4.03
2022-09-12T15:31:30.942Z,10.10
2022-09-12T15:33:59.183Z,2.22
2022-09-12T15:36:26.555Z,4.07
2022-09-12T15:38:53.603Z,5.57
2022-09-12T15:41:28.463Z,2.88
2022-09-12T15:43:55.829Z,3.10
2022-09-12T15:46:22.918Z,1.42
2022-09-12T15:48:49.618Z,3.60
2022-09-12T15:51:18.073Z,2.40
2022-09-12T15:53:45.759Z,8.13
2022-09-12T15:56:14.314Z,3.88
2022-09-12T15:58:54.749Z,5.00
2022-09-12T16:01:23.708Z,2.65
2022-09-12T16:03:49.767Z,2.28
2022-09-12T16:06:16.193Z,3.95
2022-09-12T16:08:42.366Z,4.15
2022-09-12T16:11:20.657Z,3.50
2022-09-12T16:13:47.087Z,2.15
2022-09-12T16:16:13.455Z,2.80
2022-09-12T16:18:40.467Z,1.73
2022-09-12T16:21:09.099Z,3.25
2022-09-12T16:23:41.313Z,1.60
2022-09-12T16:26:07.434Z,6.03
2022-09-12T16:28:33.932Z,2.53
2022-09-12T16:31:04.476Z,3.50
2022-09-12T16:33:32.020Z,5.68
2022-09-12T16:36:09.662Z,2.65
2022-09-12T16:38:47.833Z,3.40
2022-09-12T16:41:15.272Z,3.97
2022-09-12T16:43:43.301Z,3.03
2022-09-12T16:46:17.786Z,1.83
2022-09-12T16:48:52.081Z,1.98
2022-09-12T16:51:21.573Z,1.95
2022-09-12T16:53:48.137Z,2.03
2022-09-12T16:56:15.911Z,2.38
2022-09-12T16:58:42.972Z,6.47
2022-09-12T17:01:20.127Z,3.05
2022-09-12T17:03:46.538Z,6.80
2022-09-12T17:06:23.908Z,3.33
2022-09-12T17:08:52.548Z,2.58
2022-09-12T17:11:29.835Z,2.60
2022-09-12T17:14:04.925Z,6.15
2022-09-12T17:16:39.650Z,5.95
2022-09-12T17:19:07.350Z,4.45
2022-09-12T17:21:37.453Z,1.65
2022-09-12T17:24:03.716Z,2.75
2022-09-12T17:26:30.737Z,5.05
2022-09-12T17:28:57.099Z,4.05
2022-09-12T17:31:23.492Z,5.05
2022-09-12T17:33:50.121Z,6.43
2022-09-12T17:36:17.469Z,2.10
2022-09-12T17:38:45.431Z,1.65
2022-09-12T17:41:20.891Z,3.35
2022-09-12T17:43:53.921Z,4.35
2022-09-12T17:46:21.431Z,6.30
2022-09-12T17:48:53.091Z,1.85
2022-09-12T17:51:20.365Z,5.38
2022-09-12T17:53:47.616Z,3.17
2022-09-12T17:56:15.267Z,3.53
2022-09-12T17:58:44.338Z,6.25
2022-09-12T18:01:32.167Z,3.22
2022-09-12T18:04:00.212Z,2.58
2022-09-12T18:06:27.575Z,7.85
2022-09-12T18:08:54.609Z,4.85
2022-09-12T18:11:21.148Z,2.40
2022-09-12T18:13:48.107Z,2.05
2022-09-12T18:16:14.831Z,3.35
2022-09-12T18:18:41.550Z,3.30
2022-09-12T18:21:09.673Z,2.78
2022-09-12T18:23:36.156Z,3.05
2022-09-12T18:26:05.035Z,2.33
2022-09-12T18:28:33.009Z,2.58
2022-09-12T18:31:01.035Z,3.58
2022-09-12T18:33:27.440Z,2.63
2022-09-12T18:35:55.375Z,3.33
2022-09-12T18:38:22.306Z,3.50
2022-09-12T18:40:48.936Z,4.72
2022-09-12T18:43:15.498Z,4.32
2022-09-12T18:45:41.610Z,4.30
2022-09-12T18:48:08.725Z,3.47
2022-09-12T18:50:34.980Z,5.35
2022-09-12T18:53:02.336Z,4.60
2022-09-12T18:55:30.428Z,5.68
2022-09-12T18:57:56.599Z,4.00
2022-09-12T19:00:25.174Z,4.78
2022-09-12T19:02:51.379Z,4.90
2022-09-12T19:05:17.854Z,4.03
2022-09-12T19:07:43.989Z,3.85
2022-09-12T19:10:10.616Z,2.78
2022-09-12T19:12:36.971Z,3.20
2022-09-12T19:15:03.819Z,4.13
2022-09-12T19:17:29.984Z,4.28
2022-09-12T19:19:56.108Z,4.30
2022-09-12T19:22:22.228Z,3.13
2022-09-12T19:24:48.285Z,8.18
2022-09-12T19:27:15.406Z,4.32
2022-09-12T19:29:41.759Z,7.53
2022-09-12T19:32:07.881Z,5.57
2022-09-12T19:34:34.013Z,8.88
2022-09-12T19:37:00.297Z,12.32
2022-09-12T19:39:26.505Z,12.27
2022-09-12T19:41:52.584Z,6.00
2022-09-12T19:44:20.041Z,4.25
2022-09-12T19:46:46.207Z,3.75
2022-09-12T19:49:13.923Z,3.42
2022-09-12T19:51:40.653Z,7.10
2022-09-12T19:54:07.131Z,3.78
2022-09-12T19:56:33.191Z,3.45
2022-09-12T19:59:02.872Z,4.88
2022-09-12T20:01:29.132Z,4.53
2022-09-12T20:03:58.495Z,3.50
2022-09-12T20:06:26.289Z,13.32
2022-09-12T20:08:53.203Z,5.85
2022-09-12T20:11:21.221Z,8.70
2022-09-12T20:13:47.398Z,5.00
2022-09-12T20:16:21.630Z,9.85
2022-09-12T20:18:56.094Z,6.43
2022-09-12T20:21:25.871Z,7.18
2022-09-12T20:23:52.210Z,5.78
2022-09-12T20:26:19.498Z,3.05
2022-09-12T20:28:45.614Z,4.53
2022-09-12T20:31:14.457Z,7.43
2022-09-12T20:33:40.785Z,9.38
2022-09-12T20:36:15.509Z,5.72
2022-09-12T20:38:46.173Z,5.30
2022-09-12T20:41:12.452Z,3.55
2022-09-12T20:43:39.952Z,4.03
2022-09-12T20:46:09.199Z,5.65
2022-09-12T20:48:36.309Z,4.90
2022-09-12T20:51:02.587Z,5.00
2022-09-12T20:53:31.724Z,6.72
2022-09-12T20:56:00.964Z,8.40
2022-09-12T20:58:27.049Z,3.95
2022-09-12T21:00:56.968Z,6.38
2022-09-12T21:03:23.202Z,7.15
2022-09-12T21:05:49.553Z,6.63
2022-09-12T21:08:16.473Z,8.13
2022-09-12T21:10:43.805Z,7.32
2022-09-12T21:13:11.438Z,4.18
2022-09-12T21:15:39.247Z,9.23
2022-09-12T21:18:06.202Z,5.72
2022-09-12T21:20:32.734Z,4.47
2022-09-12T21:22:59.074Z,8.95
2022-09-12T21:25:25.139Z,9.55
2022-09-12T21:27:51.282Z,5.40
2022-09-12T21:30:19.855Z,6.40
2022-09-12T21:32:45.979Z,6.82
2022-09-12T21:35:12.089Z,4.65
2022-09-12T21:37:38.124Z,8.80
2022-09-12T21:40:04.611Z,8.52
2022-09-12T21:42:31.173Z,4.70
2022-09-12T21:44:57.290Z,6.38
2022-09-12T21:47:26.022Z,5.97
2022-09-12T21:49:52.125Z,9.32
2022-09-12T21:52:18.273Z,7.88
2022-09-12T21:54:44.441Z,6.50
2022-09-12T21:57:10.538Z,7.72
2022-09-12T21:59:36.611Z,7.07
2022-09-12T22:02:03.440Z,5.40
2022-09-12T22:04:32.190Z,6.50
2022-09-12T22:06:58.366Z,7.90
2022-09-12T22:09:25.377Z,11.13
2022-09-12T22:11:51.724Z,8.40
2022-09-12T22:14:17.859Z,8.13
2022-09-12T22:16:44.164Z,6.18
2022-09-12T22:19:10.249Z,6.07
2022-09-12T22:21:56.301Z,5.95
2022-09-12T22:24:29.076Z,4.63
2022-09-12T22:26:56.742Z,8.65
2022-09-12T22:29:22.999Z,6.00
2022-09-12T22:31:49.724Z,5.78
2022-09-12T22:34:15.925Z,6.03
2022-09-12T22:36:42.123Z,9.65
2022-09-12T22:39:08.393Z,5.25
2022-09-12T22:41:34.671Z,6.22
2022-09-12T22:44:00.925Z,9.80
2022-09-12T22:46:27.081Z,9.05
2022-09-12T22:48:54.967Z,7.38
2022-09-12T22:51:21.072Z,5.43
2022-09-12T22:53:47.354Z,7.40
2022-09-12T22:56:13.497Z,6.65
2022-09-12T22:58:41.189Z,6.47
2022-09-12T23:01:08.001Z,9.98
2022-09-12T23:03:34.764Z,5.63
2022-09-12T23:06:01.616Z,5.75
2022-09-12T23:08:28.914Z,7.10
2022-09-12T23:11:03.589Z,8.23
2022-09-12T23:13:30.337Z,7.07
2022-09-12T23:15:57.977Z,5.53
2022-09-12T23:18:24.196Z,11.57
2022-09-12T23:21:01.739Z,6.57
2022-09-12T23:23:28.600Z,6.63
2022-09-12T23:26:07.029Z,6.05
2022-09-12T23:28:34.766Z,5.63
2022-09-12T23:31:01.438Z,11.95
2022-09-12T23:33:28.920Z,6.88
2022-09-12T23:35:59.561Z,7.13
2022-09-12T23:38:25.834Z,7.32
2022-09-12T23:40:51.990Z,6.05
2022-09-12T23:43:18.374Z,5.75
2022-09-12T23:45:44.810Z,4.53
2022-09-12T23:48:10.980Z,8.90
2022-09-12T23:50:36.977Z,7.30
2022-09-12T23:53:03.092Z,7.93
2022-09-12T23:55:29.188Z,9.35
2022-09-12T23:57:55.312Z,7.70
